Time;durP1;ratioP1;P1;durP2;ratioP2;P2;SDS_P1;SDS_P2;PMS_P1;PMS_P2;Temp;Humidity;BMP_temperature;BMP_pressure;BME280_temperature;BME280_humidity;BME280_pressure;Samples;Min_cycle;Max_cycle;Signal;HPM_P1;HPM_P2
2023/03/24 00:00:29;;;;;;;57.83;31.70;;;;;;;8.09;99.24;94756.72;6214490;23;20513;-83
2023/03/24 00:03:00;;;;;;;59.37;29.90;;;;;;;8.13;99.29;94741.59;6214309;23;20687;-83
2023/03/24 00:05:29;;;;;;;62.67;32.07;;;;;;;8.09;99.64;94748.94;6215774;23;20158;-81
2023/03/24 00:07:56;;;;;;;68.33;35.27;;;;;;;7.99;100.00;94746.75;6212750;23;20193;-82
2023/03/24 00:10:23;;;;;;;67.10;35.27;;;;;;;7.92;100.00;94735.63;6213316;23;20190;-82
2023/03/24 00:12:51;;;;;;;72.43;35.90;;;;;;;7.97;100.00;94742.78;6213195;23;20515;-82
2023/03/24 00:15:20;;;;;;;73.87;38.27;;;;;;;8.00;100.00;94748.34;6213706;23;20166;-82
2023/03/24 00:17:49;;;;;;;78.70;40.50;;;;;;;7.99;100.00;94743.38;6205324;23;20175;-82
2023/03/24 00:20:19;;;;;;;85.10;44.70;;;;;;;7.98;100.00;94745.19;6206336;23;20204;-83
2023/03/24 00:22:49;;;;;;;95.30;46.10;;;;;;;7.96;100.00;94743.78;6222147;23;20257;-82
2023/03/24 00:25:17;;;;;;;91.83;47.30;;;;;;;7.81;100.00;94743.19;6226540;23;20212;-82
2023/03/24 00:27:47;;;;;;;88.67;46.03;;;;;;;7.82;100.00;94748.13;6230071;23;20166;-82
2023/03/24 00:30:16;;;;;;;95.30;44.90;;;;;;;7.80;100.00;94744.97;6222092;23;20224;-81
2023/03/24 00:32:43;;;;;;;96.33;44.07;;;;;;;7.92;100.00;94748.56;6215395;23;20679;-81
2023/03/24 00:35:13;;;;;;;89.13;45.60;;;;;;;7.97;100.00;94738.41;6211706;23;20170;-83
2023/03/24 00:37:43;;;;;;;72.27;40.33;;;;;;;7.96;100.00;94741.19;6213734;23;20170;-82
2023/03/24 00:40:12;;;;;;;80.87;42.67;;;;;;;7.90;100.00;94740.22;6211299;23;20634;-82
2023/03/24 00:42:40;;;;;;;66.07;35.00;;;;;;;7.90;100.00;94737.63;6209931;23;20201;-82
2023/03/24 00:45:08;;;;;;;43.13;25.70;;;;;;;7.69;100.00;94732.63;6210365;23;20159;-83
2023/03/24 00:47:36;;;;;;;43.80;24.23;;;;;;;7.54;100.00;94738.97;6210978;23;20174;-82
2023/03/24 00:50:05;;;;;;;34.67;19.73;;;;;;;7.26;100.00;94733.94;6211683;23;20655;-83
2023/03/24 00:52:33;;;;;;;37.90;20.90;;;;;;;7.14;100.00;94735.50;6210332;23;20170;-83
2023/03/24 00:55:03;;;;;;;45.70;26.57;;;;;;;7.20;100.00;94732.16;6209784;23;20174;-82
2023/03/24 00:57:33;;;;;;;54.83;28.50;;;;;;;7.15;100.00;94737.09;6211220;23;20159;-83
2023/03/24 01:00:05;;;;;;;50.70;28.67;;;;;;;7.12;100.00;94733.13;6210800;23;20162;-81
2023/03/24 01:02:32;;;;;;;60.23;29.33;;;;;;;7.10;100.00;94721.41;6213466;22;20197;-82
2023/03/24 01:05:00;;;;;;;56.37;30.47;;;;;;;7.12;100.00;94727.16;6210439;23;20177;-82
2023/03/24 01:07:29;;;;;;;48.47;27.77;;;;;;;7.14;100.00;94735.50;6210690;23;20185;-82
2023/03/24 01:09:57;;;;;;;45.90;26.07;;;;;;;7.06;100.00;94728.72;6210856;23;20170;-82
2023/03/24 01:12:27;;;;;;;42.67;23.93;;;;;;;7.17;100.00;94732.53;6211535;23;20170;-81
2023/03/24 01:14:54;;;;;;;43.63;23.30;;;;;;;7.20;100.00;94732.94;6210392;23;20645;-83
2023/03/24 01:17:24;;;;;;;44.67;25.23;;;;;;;7.18;100.00;94728.97;6210704;23;20173;-82
2023/03/24 01:19:51;;;;;;;49.03;26.70;;;;;;;7.18;100.00;94729.78;6212018;23;20515;-82
2023/03/24 01:22:19;;;;;;;47.63;26.73;;;;;;;7.25;100.00;94727.97;6211512;23;20568;-84
2023/03/24 01:24:47;;;;;;;51.10;27.97;;;;;;;7.20;100.00;94717.44;6212379;23;20167;-82
2023/03/24 01:27:14;;;;;;;51.20;28.93;;;;;;;7.19;100.00;94721.00;6211453;23;20166;-83
2023/03/24 01:29:43;;;;;;;55.20;29.53;;;;;;;7.13;100.00;94721.78;6210524;23;20180;-83
2023/03/24 01:32:10;;;;;;;54.90;29.00;;;;;;;7.18;100.00;94718.63;6210746;23;20166;-83
2023/03/24 01:34:37;;;;;;;53.50;28.70;;;;;;;7.17;100.00;94717.81;6213215;23;20173;-84
2023/03/24 01:37:04;;;;;;;55.03;29.47;;;;;;;7.12;100.00;94716.81;6209747;23;20176;-83
2023/03/24 01:39:31;;;;;;;54.77;29.50;;;;;;;7.16;100.00;94716.22;6208702;23;20193;-84
2023/03/24 01:41:58;;;;;;;55.47;29.63;;;;;;;7.16;100.00;94710.25;6209315;23;20198;-84
2023/03/24 01:44:31;;;;;;;54.50;29.27;;;;;;;7.11;100.00;94720.38;6210861;23;20170;-84
2023/03/24 01:47:00;;;;;;;55.30;31.30;;;;;;;7.05;100.00;94714.22;6211077;23;20632;-85
2023/03/24 01:49:31;;;;;;;59.40;31.47;;;;;;;7.07;100.00;94719.19;6211353;23;20170;-83
2023/03/24 01:52:02;;;;;;;58.40;31.13;;;;;;;6.96;100.00;94714.56;6210723;23;20220;-83
2023/03/24 01:54:33;;;;;;;59.63;32.90;;;;;;;7.05;100.00;94723.75;6211006;23;20154;-83
2023/03/24 01:57:05;;;;;;;59.53;32.63;;;;;;;6.98;100.00;94728.13;6211769;23;20151;-82
2023/03/24 01:59:36;;;;;;;59.93;31.97;;;;;;;6.92;100.00;94715.97;6210971;23;20586;-81
2023/03/24 02:02:06;;;;;;;63.93;32.13;;;;;;;6.90;100.00;94723.88;6209515;22;20220;-81
2023/03/24 02:04:38;;;;;;;62.27;32.30;;;;;;;7.01;100.00;94725.94;6209973;23;20154;-81
2023/03/24 02:07:14;;;;;;;58.93;31.70;;;;;;;7.01;100.00;94718.19;6209550;23;21022;-81
2023/03/24 02:09:41;;;;;;;53.90;31.50;;;;;;;6.98;100.00;94720.34;6210574;23;20185;-81
2023/03/24 02:12:08;;;;;;;53.57;31.90;;;;;;;6.97;100.00;94726.50;6211467;23;20201;-81
2023/03/24 02:14:35;;;;;;;61.13;31.80;;;;;;;6.92;100.00;94728.88;6210889;23;20173;-81
2023/03/24 02:17:28;;;;;;;54.57;29.43;;;;;;;6.84;100.00;94725.47;6209401;23;20668;-83
2023/03/24 02:20:28;;;;;;;47.77;27.67;;;;;;;6.78;100.00;94738.38;6210558;23;20221;-81
2023/03/24 02:23:48;;;;;;;38.70;24.30;;;;;;;6.71;100.00;94733.16;6209705;23;20233;-82
2023/03/24 02:26:41;;;;;;;48.70;26.07;;;;;;;6.56;100.00;94717.00;6211720;23;20162;-82
2023/03/24 02:29:45;;;;;;;50.53;27.63;;;;;;;6.57;100.00;94728.94;6209855;23;20196;-83
2023/03/24 02:33:02;;;;;;;52.23;29.87;;;;;;;6.60;100.00;94725.16;6156046;23;20207;-82
2023/03/24 02:36:10;;;;;;;54.23;28.53;;;;;;;6.56;100.00;94731.69;6191385;23;20181;-82
2023/03/24 02:39:12;;;;;;;43.93;27.73;;;;;;;6.55;100.00;94715.41;6185181;23;20166;-81
2023/03/24 02:41:49;;;;;;;43.40;25.13;;;;;;;6.59;100.00;94710.66;6209326;23;20277;-82
2023/03/24 02:44:24;;;;;;;33.40;18.80;;;;;;;6.50;100.00;94710.03;6211650;23;20162;-82
2023/03/24 02:46:56;;;;;;;34.27;19.40;;;;;;;6.49;100.00;94703.28;6210820;23;20153;-83
2023/03/24 02:49:30;;;;;;;43.77;22.63;;;;;;;6.49;100.00;94695.53;6210541;23;20170;-82
2023/03/24 02:52:03;;;;;;;33.13;19.23;;;;;;;6.49;100.00;94692.16;6209918;23;20174;-82
2023/03/24 02:54:41;;;;;;;27.73;16.67;;;;;;;6.43;100.00;94695.50;6211386;23;20151;-83
2023/03/24 02:57:15;;;;;;;29.10;16.13;;;;;;;6.41;100.00;94685.34;6211024;23;20166;-82
2023/03/24 02:59:48;;;;;;;27.17;17.13;;;;;;;6.45;100.00;94690.94;6210201;23;20166;-83
2023/03/24 03:02:20;;;;;;;30.73;16.80;;;;;;;6.47;100.00;94686.38;6208204;22;20194;-83
2023/03/24 03:04:53;;;;;;;33.07;17.97;;;;;;;6.52;100.00;94689.97;6209273;23;20158;-81
2023/03/24 03:07:23;;;;;;;31.70;16.57;;;;;;;6.59;100.00;94695.97;6209707;23;20504;-82
2023/03/24 03:10:00;;;;;;;26.60;16.50;;;;;;;6.58;100.00;94688.44;6210774;23;20623;-82
2023/03/24 03:12:33;;;;;;;43.73;20.50;;;;;;;6.59;100.00;94684.84;6212353;23;20253;-83
2023/03/24 03:15:03;;;;;;;35.90;20.73;;;;;;;6.62;100.00;94685.25;6209989;23;20217;-82
2023/03/24 03:17:35;;;;;;;33.60;19.17;;;;;;;6.73;100.00;94683.91;6209971;23;20162;-82
2023/03/24 03:20:07;;;;;;;37.00;19.73;;;;;;;6.64;100.00;94679.88;6209986;23;20633;-82
2023/03/24 03:22:42;;;;;;;40.73;21.47;;;;;;;6.70;100.00;94687.66;6212805;23;20150;-84
2023/03/24 03:25:12;;;;;;;36.63;20.13;;;;;;;6.62;100.00;94687.84;6213097;23;20165;-83
2023/03/24 03:27:45;;;;;;;37.13;20.40;;;;;;;6.60;100.00;94687.25;6211623;23;20170;-83
2023/03/24 03:30:17;;;;;;;37.40;19.30;;;;;;;6.66;100.00;94691.66;6211363;23;20833;-81
2023/03/24 03:32:52;;;;;;;32.30;18.37;;;;;;;6.69;100.00;94680.94;6211197;23;20205;-81
2023/03/24 03:35:24;;;;;;;34.10;20.03;;;;;;;6.71;100.00;94685.88;6212447;23;20265;-82
2023/03/24 03:37:59;;;;;;;29.80;18.00;;;;;;;6.67;100.00;94685.47;6213543;23;20167;-82
2023/03/24 03:40:34;;;;;;;30.07;16.27;;;;;;;6.72;100.00;94683.09;6213151;23;20214;-83
2023/03/24 03:43:05;;;;;;;27.97;16.17;;;;;;;6.72;100.00;94680.50;6212266;23;20154;-80
2023/03/24 03:45:33;;;;;;;29.77;17.23;;;;;;;6.68;100.00;94666.41;6212986;23;20159;-81
2023/03/24 03:48:00;;;;;;;31.17;18.03;;;;;;;6.75;100.00;94679.38;6213050;23;20166;-80
2023/03/24 03:50:27;;;;;;;26.93;16.50;;;;;;;6.77;100.00;94688.50;6213300;23;20166;-81
2023/03/24 03:52:54;;;;;;;26.00;15.33;;;;;;;6.73;100.00;94694.22;6211897;23;20564;-80
2023/03/24 03:55:21;;;;;;;27.73;16.73;;;;;;;6.62;100.00;94687.84;6212168;23;20170;-80
2023/03/24 03:57:48;;;;;;;27.73;17.07;;;;;;;6.72;100.00;94696.00;6211659;23;20170;-81
2023/03/24 04:00:19;;;;;;;36.90;20.00;;;;;;;6.77;100.00;94703.19;6213732;23;20173;-80
2023/03/24 04:03:07;;;;;;;44.10;22.63;;;;;;;6.79;100.00;94699.44;6212480;22;20685;-80
2023/03/24 04:05:36;;;;;;;35.63;20.63;;;;;;;6.73;100.00;94694.22;6211795;23;20217;-80
2023/03/24 04:08:24;;;;;;;38.20;22.30;;;;;;;6.83;100.00;94697.25;6211044;23;20645;-80
2023/03/24 04:11:14;;;;;;;41.97;24.77;;;;;;;6.70;100.00;94692.84;6211548;23;20167;-80
2023/03/24 04:13:52;;;;;;;53.57;30.63;;;;;;;6.72;100.00;94700.41;6211849;23;20197;-80
2023/03/24 04:16:28;;;;;;;63.70;36.00;;;;;;;6.72;100.00;94703.00;6212429;23;20180;-79
2023/03/24 04:19:11;;;;;;;54.07;27.60;;;;;;;6.69;100.00;94698.22;6212529;23;20169;-80
2023/03/24 04:21:54;;;;;;;47.03;25.03;;;;;;;6.65;100.00;94704.72;6212089;23;20185;-80
2023/03/24 04:24:38;;;;;;;67.93;30.37;;;;;;;6.55;100.00;94704.31;6212148;23;20154;-80
2023/03/24 04:27:13;;;;;;;57.90;33.77;;;;;;;6.49;100.00;94697.31;6208827;23;20204;-80
2023/03/24 04:29:52;;;;;;;57.30;32.50;;;;;;;6.38;100.00;94693.47;6209967;23;20237;-80
2023/03/24 04:32:29;;;;;;;69.43;40.27;;;;;;;6.49;100.00;94699.91;6211394;23;20229;-81
2023/03/24 04:35:00;;;;;;;85.77;50.53;;;;;;;6.43;100.00;94691.13;6212847;23;20583;-81
2023/03/24 04:37:31;;;;;;;98.67;57.10;;;;;;;6.31;100.00;94684.91;6211887;23;20206;-81
2023/03/24 04:40:00;;;;;;;111.57;65.00;;;;;;;6.35;100.00;94700.84;6212046;23;20169;-81
2023/03/24 04:42:33;;;;;;;138.27;77.67;;;;;;;6.34;100.00;94706.97;6211487;23;20167;-83
2023/03/24 04:45:01;;;;;;;143.13;83.23;;;;;;;6.39;100.00;94713.16;6186600;23;20159;-82
2023/03/24 04:47:37;;;;;;;164.57;94.37;;;;;;;6.45;100.00;94712.38;6212551;23;20167;-83
2023/03/24 04:50:08;;;;;;;154.83;90.00;;;;;;;6.50;100.00;94728.09;6211859;23;20158;-83
2023/03/24 04:52:34;;;;;;;171.03;101.30;;;;;;;6.47;100.00;94723.31;6211957;23;20654;-82
2023/03/24 04:55:02;;;;;;;162.67;94.90;;;;;;;6.40;100.00;94734.59;6211248;23;20166;-82
2023/03/24 04:57:29;;;;;;;177.63;97.90;;;;;;;6.41;100.00;94731.00;6212071;23;20189;-81
2023/03/24 04:59:56;;;;;;;179.00;102.70;;;;;;;6.47;100.00;94735.41;6210922;23;20169;-81
2023/03/24 05:02:23;;;;;;;182.07;101.33;;;;;;;6.37;100.00;94730.63;6210885;22;20190;-83
2023/03/24 05:04:54;;;;;;;170.70;97.43;;;;;;;6.32;100.00;94722.63;6211675;23;20170;-84
2023/03/24 05:07:20;;;;;;;149.67;90.77;;;;;;;6.39;100.00;94733.00;6211563;23;20154;-83
2023/03/24 05:09:47;;;;;;;172.10;99.87;;;;;;;6.45;100.00;94735.63;6212186;23;20221;-84
2023/03/24 05:12:14;;;;;;;180.83;108.60;;;;;;;6.53;100.00;94738.03;6211382;23;20214;-81
2023/03/24 05:14:49;;;;;;;142.40;85.27;;;;;;;6.54;100.00;94738.84;6209886;23;20170;-81
2023/03/24 05:17:15;;;;;;;151.33;87.57;;;;;;;6.61;100.00;94744.84;6210173;23;20161;-80
2023/03/24 05:19:42;;;;;;;188.67;112.40;;;;;;;6.69;100.00;94742.91;6211289;23;20776;-83
2023/03/24 05:22:11;;;;;;;218.83;126.47;;;;;;;6.48;100.00;94719.75;6212567;23;20232;-82
2023/03/24 05:24:39;;;;;;;200.67;122.97;;;;;;;6.52;100.00;94738.25;6212189;23;20173;-84
2023/03/24 05:27:05;;;;;;;192.83;113.43;;;;;;;6.65;100.00;94758.94;6211347;23;20178;-86
2023/03/24 05:29:33;;;;;;;183.23;107.33;;;;;;;6.72;100.00;94752.03;6210291;23;20170;-81
2023/03/24 05:32:00;;;;;;;185.23;108.53;;;;;;;6.83;100.00;94752.31;6212271;23;20177;-81
2023/03/24 05:34:27;;;;;;;197.67;118.40;;;;;;;6.90;100.00;94751.53;6212245;23;20174;-80
2023/03/24 05:36:54;;;;;;;165.80;96.63;;;;;;;6.92;100.00;94746.97;6211336;23;20166;-81
2023/03/24 05:39:22;;;;;;;148.63;86.13;;;;;;;6.94;100.00;94756.09;6211293;23;20170;-81
2023/03/24 05:41:49;;;;;;;142.33;84.17;;;;;;;6.99;100.00;94751.16;6211818;23;20162;-81
2023/03/24 05:44:16;;;;;;;144.10;85.40;;;;;;;7.00;100.00;94752.75;6212221;23;20178;-80
2023/03/24 05:46:44;;;;;;;140.97;82.87;;;;;;;7.03;100.00;94765.28;6211522;23;20170;-79
2023/03/24 05:49:11;;;;;;;154.20;86.70;;;;;;;7.07;100.00;94748.41;6210857;23;20170;-78
2023/03/24 05:51:38;;;;;;;127.17;79.33;;;;;;;7.18;100.00;94758.19;6208121;23;20235;-79
2023/03/24 05:54:06;;;;;;;125.37;76.90;;;;;;;7.21;100.00;94752.63;6210607;23;20205;-78
2023/03/24 05:56:34;;;;;;;118.80;70.67;;;;;;;7.29;100.00;94755.03;6210143;23;20174;-79
2023/03/24 05:59:01;;;;;;;121.10;68.23;;;;;;;7.36;100.00;94763.59;6209132;23;20193;-79
2023/03/24 06:01:29;;;;;;;106.47;63.40;;;;;;;7.36;100.00;94755.84;6209140;23;20201;-77
2023/03/24 06:03:56;;;;;;;110.83;59.23;;;;;;;7.43;100.00;94764.41;6208506;23;20217;-76
2023/03/24 06:06:22;;;;;;;93.10;54.97;;;;;;;7.37;100.00;94754.06;6208562;23;20174;-77
2023/03/24 06:08:53;;;;;;;90.73;49.77;;;;;;;7.39;100.00;94757.22;6209102;23;20162;-81
2023/03/24 06:11:20;;;;;;;93.53;48.33;;;;;;;7.42;100.00;94756.84;6212323;23;20582;-81
2023/03/24 06:13:49;;;;;;;81.57;44.13;;;;;;;7.48;100.00;94757.84;6212895;23;20194;-81
2023/03/24 06:16:17;;;;;;;66.90;40.23;;;;;;;7.53;100.00;94752.91;6212974;23;20385;-81
2023/03/24 06:18:51;;;;;;;66.53;37.53;;;;;;;7.52;100.00;94764.22;6212697;23;20185;-81
2023/03/24 06:21:18;;;;;;;60.37;34.97;;;;;;;7.50;100.00;94761.06;6212615;23;20158;-81
2023/03/24 06:23:46;;;;;;;57.63;35.00;;;;;;;7.38;100.00;94753.88;6212655;23;20170;-80
2023/03/24 06:26:15;;;;;;;55.90;33.57;;;;;;;7.50;100.00;94768.81;6210923;23;20166;-78
2023/03/24 06:28:42;;;;;;;55.70;31.87;;;;;;;7.56;100.00;94765.44;6210167;23;20166;-77
2023/03/24 06:31:13;;;;;;;50.33;30.00;;;;;;;7.69;100.00;94763.66;6209030;23;20201;-77
2023/03/24 06:33:41;;;;;;;52.10;29.77;;;;;;;7.78;100.00;94772.03;6208087;23;20186;-78
2023/03/24 06:36:08;;;;;;;49.97;29.27;;;;;;;7.75;100.00;94752.53;6208396;23;20170;-78
2023/03/24 06:38:35;;;;;;;53.30;29.43;;;;;;;7.98;100.00;94759.91;6210298;23;20173;-77
2023/03/24 06:41:04;;;;;;;51.67;28.80;;;;;;;8.03;100.00;94765.28;6208193;23;20189;-76
2023/03/24 06:43:31;;;;;;;48.63;28.93;;;;;;;8.13;100.00;94764.88;6208342;23;20178;-77
2023/03/24 06:45:57;;;;;;;51.87;26.53;;;;;;;8.14;100.00;94771.66;6208281;23;20257;-78
2023/03/24 06:48:26;;;;;;;52.63;28.53;;;;;;;8.20;100.00;94768.25;6209160;23;20170;-77
2023/03/24 06:50:54;;;;;;;50.80;28.47;;;;;;;8.28;100.00;94765.50;6209339;23;20628;-78
2023/03/24 06:53:21;;;;;;;47.47;27.60;;;;;;;8.31;100.00;94758.09;6208531;23;20216;-77
2023/03/24 06:55:51;;;;;;;47.37;26.63;;;;;;;8.42;100.00;94770.47;6208142;23;20633;-77
2023/03/24 06:58:18;;;;;;;48.17;29.23;;;;;;;8.47;100.00;94772.44;6209398;23;20171;-77
2023/03/24 07:00:45;;;;;;;57.77;28.60;;;;;;;8.56;100.00;94771.22;6211046;23;20232;-77
2023/03/24 07:03:12;;;;;;;52.17;27.67;;;;;;;8.54;100.00;94771.41;6208088;23;20198;-76
2023/03/24 07:05:43;;;;;;;50.03;26.40;;;;;;;8.53;100.00;94769.03;6207879;23;20641;-78
2023/03/24 07:08:12;;;;;;;44.57;25.10;;;;;;;8.57;100.00;94769.44;6208355;23;20787;-76
2023/03/24 07:10:40;;;;;;;45.90;25.53;;;;;;;8.79;100.00;94787.13;6208359;23;20253;-76
2023/03/24 07:13:07;;;;;;;56.63;23.77;;;;;;;8.84;100.00;94781.31;6208689;23;20193;-77
2023/03/24 07:15:34;;;;;;;40.27;24.60;;;;;;;8.87;100.00;94773.13;6207642;23;20532;-77
2023/03/24 07:18:01;;;;;;;43.43;24.50;;;;;;;8.94;100.00;94782.50;6208368;23;20171;-77
2023/03/24 07:20:28;;;;;;;47.07;24.63;;;;;;;9.08;100.00;94789.22;6208234;23;20182;-76
2023/03/24 07:22:58;;;;;;;40.60;24.50;;;;;;;8.95;100.00;94781.47;6210197;23;20162;-76
2023/03/24 07:25:24;;;;;;;44.00;24.10;;;;;;;9.09;100.00;94782.25;6208719;23;20162;-77
2023/03/24 07:27:54;;;;;;;45.60;23.77;;;;;;;9.13;100.00;94781.63;6207830;23;20767;-77
2023/03/24 07:30:21;;;;;;;47.70;24.53;;;;;;;9.15;99.65;94789.19;6208002;23;20170;-79
2023/03/24 07:32:48;;;;;;;44.80;24.17;;;;;;;9.18;99.17;94785.41;6209961;23;20900;-78
2023/03/24 07:35:17;;;;;;;38.03;24.20;;;;;;;9.18;98.82;94780.22;6210161;23;20208;-78
2023/03/24 07:37:44;;;;;;;47.77;25.27;;;;;;;9.18;99.26;94775.03;6208330;23;20166;-79
2023/03/24 07:40:14;;;;;;;49.90;24.53;;;;;;;9.32;99.04;94779.16;6209111;23;20173;-78
2023/03/24 07:42:42;;;;;;;50.37;26.00;;;;;;;9.38;97.61;94786.91;6208498;23;20167;-80
2023/03/24 07:45:11;;;;;;;38.43;24.13;;;;;;;9.46;97.37;94785.88;6209923;23;20174;-83
2023/03/24 07:47:39;;;;;;;41.33;24.93;;;;;;;9.51;96.90;94775.66;6208924;23;20170;-79
2023/03/24 07:50:09;;;;;;;43.67;23.00;;;;;;;9.59;96.24;94778.00;6209245;23;20545;-79
2023/03/24 07:52:36;;;;;;;43.50;24.17;;;;;;;9.63;96.23;94776.59;6208987;23;20189;-80
2023/03/24 07:55:03;;;;;;;38.60;24.20;;;;;;;9.71;96.53;94776.34;6209423;23;20235;-79
2023/03/24 07:57:34;;;;;;;40.63;24.37;;;;;;;9.85;95.08;94777.03;6211158;23;20874;-80
2023/03/24 08:00:00;;;;;;;40.57;24.03;;;;;;;9.97;94.91;94775.38;6209911;23;20178;-82
2023/03/24 08:02:27;;;;;;;37.53;23.03;;;;;;;9.92;94.11;94768.22;6209412;23;20206;-80
2023/03/24 08:04:55;;;;;;;37.27;23.77;;;;;;;9.94;93.80;94758.41;6210851;23;20888;-79
2023/03/24 08:07:23;;;;;;;40.60;25.23;;;;;;;9.99;93.89;94753.38;6213362;23;20194;-79
2023/03/24 08:09:50;;;;;;;42.67;25.10;;;;;;;10.18;93.44;94751.69;6211553;23;20295;-80
2023/03/24 08:12:17;;;;;;;41.20;23.77;;;;;;;10.20;93.03;94747.06;6211299;23;20630;-80
2023/03/24 08:14:45;;;;;;;38.90;22.83;;;;;;;10.35;92.26;94757.91;6211073;23;20194;-80
2023/03/24 08:17:12;;;;;;;36.23;23.30;;;;;;;10.47;91.74;94756.22;6211001;23;20196;-80
2023/03/24 08:19:39;;;;;;;42.37;21.67;;;;;;;10.58;91.88;94757.31;6212401;23;20512;-78
2023/03/24 08:22:08;;;;;;;35.20;20.83;;;;;;;10.69;90.02;94754.78;6211292;23;20181;-80
2023/03/24 08:24:35;;;;;;;30.20;19.13;;;;;;;10.80;88.07;94751.47;6210227;23;20501;-79
2023/03/24 08:27:05;;;;;;;31.33;16.80;;;;;;;10.91;85.35;94749.94;6210648;23;20174;-80
2023/03/24 08:29:33;;;;;;;23.40;15.33;;;;;;;10.99;84.39;94746.28;6211917;23;20196;-77
2023/03/24 08:32:01;;;;;;;28.10;16.17;;;;;;;11.12;83.10;94748.69;6210445;23;20212;-78
2023/03/24 08:34:28;;;;;;;26.47;16.97;;;;;;;11.16;82.57;94745.47;6209482;23;20198;-78
2023/03/24 08:36:55;;;;;;;27.17;18.20;;;;;;;11.35;82.06;94748.81;6209043;23;20253;-78
2023/03/24 08:39:23;;;;;;;29.27;18.87;;;;;;;11.48;81.48;94743.44;6210314;23;20247;-78
2023/03/24 08:41:50;;;;;;;37.83;19.13;;;;;;;11.58;81.86;94743.69;6211537;23;20194;-78
2023/03/24 08:44:17;;;;;;;37.77;20.27;;;;;;;11.70;81.66;94734.16;6210315;23;20660;-79
2023/03/24 08:47:36;;;;;;;32.90;19.60;;;;;;;11.63;80.66;94694.34;6210392;23;20171;-79
2023/03/24 08:50:09;;;;;;;40.23;19.03;;;;;;;12.17;79.17;94739.44;6078583;23;20172;-78
2023/03/24 08:52:36;;;;;;;31.53;20.20;;;;;;;12.37;78.97;94732.09;6210488;23;20216;-78
2023/03/24 08:55:04;;;;;;;33.10;20.63;;;;;;;12.46;77.57;94715.09;6210088;23;20687;-79
2023/03/24 08:57:32;;;;;;;42.67;20.87;;;;;;;12.66;77.37;94728.56;6211720;23;20220;-82
2023/03/24 08:59:59;;;;;;;40.37;21.83;;;;;;;12.72;76.02;94693.75;6211709;23;20166;-79
2023/03/24 09:02:26;;;;;;;30.10;20.27;;;;;;;13.01;74.11;94715.47;6212296;22;20554;-81
2023/03/24 09:04:54;;;;;;;35.93;20.50;;;;;;;12.95;71.54;94667.63;6214771;23;20173;-80
2023/03/24 09:07:23;;;;;;;32.07;21.07;;;;;;;13.40;70.56;94711.25;6218613;23;20189;-78
2023/03/24 09:09:52;;;;;;;33.40;20.50;;;;;;;13.57;69.79;94706.88;6215374;23;20629;-78
2023/03/24 09:12:19;;;;;;;31.70;21.17;;;;;;;13.76;68.75;94710.88;6221251;23;20175;-81
2023/03/24 09:14:49;;;;;;;35.33;21.77;;;;;;;13.95;68.08;94701.78;6220557;23;20202;-81
2023/03/24 09:17:16;;;;;;;30.70;21.07;;;;;;;14.29;64.72;94712.22;6217424;23;20171;-80
2023/03/24 09:19:46;;;;;;;31.87;19.73;;;;;;;14.53;62.68;94703.19;6219427;23;20548;-80
2023/03/24 09:22:13;;;;;;;35.63;21.07;;;;;;;14.53;62.13;94669.19;6218442;23;20173;-77
2023/03/24 09:24:44;;;;;;;34.93;21.53;;;;;;;14.87;61.93;94685.56;6216735;23;20167;-80
2023/03/24 09:27:11;;;;;;;32.73;20.50;;;;;;;15.23;61.87;94698.06;6214853;23;20162;-80
2023/03/24 09:29:38;;;;;;;30.87;20.40;;;;;;;15.56;59.27;94697.91;6214814;23;20630;-80
2023/03/24 09:32:05;;;;;;;35.27;20.97;;;;;;;15.85;57.41;94698.44;6213156;23;20159;-80
2023/03/24 09:34:33;;;;;;;37.53;21.40;;;;;;;16.02;56.93;94678.13;6212802;23;20580;-79
2023/03/24 09:36:59;;;;;;;38.60;20.87;;;;;;;16.36;55.98;94691.75;6213555;23;20188;-80
2023/03/24 09:39:27;;;;;;;34.00;19.30;;;;;;;16.66;54.86;94686.72;6212963;23;20170;-80
2023/03/24 09:41:56;;;;;;;32.67;19.63;;;;;;;16.88;52.83;94683.94;6213205;23;20174;-79
2023/03/24 09:44:28;;;;;;;33.47;19.23;;;;;;;17.19;52.63;94682.22;6212442;23;20166;-78
2023/03/24 09:47:00;;;;;;;40.40;23.67;;;;;;;17.40;52.03;94665.47;6211838;23;20147;-82
2023/03/24 09:49:31;;;;;;;35.30;21.93;;;;;;;17.70;49.38;94683.16;6212329;23;20513;-78
2023/03/24 09:52:04;;;;;;;27.43;18.37;;;;;;;17.80;48.71;94678.72;6212063;23;20566;-80
2023/03/24 09:54:39;;;;;;;33.25;19.08;;;;;;;18.11;48.09;94671.63;6211026;23;20181;-81
2023/03/24 09:57:16;;;;;;;33.20;18.23;;;;;;;18.40;47.07;94671.84;6211087;23;20162;-81
2023/03/24 09:59:43;;;;;;;29.55;17.73;;;;;;;18.65;45.42;94663.94;6211873;23;20158;-82
2023/03/24 10:02:12;;;;;;;29.35;18.23;;;;;;;18.75;44.78;94671.03;6207929;23;20197;-80
2023/03/24 10:04:39;;;;;;;26.45;16.65;;;;;;;18.79;44.64;94664.94;6209656;23;20211;-79
2023/03/24 10:07:16;;;;;;;27.33;16.05;;;;;;;19.07;45.11;94660.91;6210013;23;20166;-80
2023/03/24 10:09:48;;;;;;;32.78;16.25;;;;;;;19.39;44.65;94671.06;6209316;23;20170;-80
2023/03/24 10:12:30;;;;;;;26.33;15.77;;;;;;;19.81;42.71;94660.75;6210240;23;20159;-80
2023/03/24 10:15:09;;;;;;;28.45;16.55;;;;;;;20.20;41.90;94661.50;6210067;23;20212;-81
2023/03/24 10:17:45;;;;;;;27.45;15.52;;;;;;;20.42;41.96;94655.00;6210936;23;20158;-81
2023/03/24 10:20:26;;;;;;;24.48;13.70;;;;;;;20.43;41.12;94656.59;6214868;23;20176;-82
2023/03/24 10:23:01;;;;;;;18.92;12.93;;;;;;;20.72;40.24;94639.63;6211226;23;20162;-82
2023/03/24 10:25:43;;;;;;;25.95;14.45;;;;;;;20.73;40.60;94616.66;6210395;23;20165;-81
2023/03/24 10:28:18;;;;;;;23.20;13.77;;;;;;;21.27;39.11;94648.78;6216625;23;20176;-85
2023/03/24 10:30:48;;;;;;;20.55;14.63;;;;;;;21.55;38.69;94660.31;6210731;23;20692;-82
2023/03/24 10:33:15;;;;;;;24.77;12.38;;;;;;;21.84;37.28;94658.31;6211093;23;20220;-83
2023/03/24 10:35:50;;;;;;;20.80;13.25;;;;;;;21.79;36.42;94645.13;6211475;23;20198;-87
2023/03/24 10:38:19;;;;;;;19.83;12.38;;;;;;;21.79;36.45;94621.31;6210590;23;20154;-84
2023/03/24 10:40:47;;;;;;;21.13;11.63;;;;;;;22.01;36.06;94642.72;6211044;23;20703;-83
2023/03/24 10:43:17;;;;;;;21.90;11.90;;;;;;;22.30;36.32;94644.38;6210988;23;20173;-87
2023/03/24 10:45:48;;;;;;;18.55;10.68;;;;;;;22.25;35.80;94639.94;6211778;23;20185;-83
2023/03/24 10:48:34;;;;;;;16.55;11.05;;;;;;;22.20;35.36;94642.66;6210325;23;20170;-84
2023/03/24 10:51:01;;;;;;;19.10;10.05;;;;;;;22.53;34.94;94648.72;6210460;23;20185;-83
2023/03/24 10:53:28;;;;;;;15.45;8.90;;;;;;;22.60;34.89;94625.28;6211106;23;20518;-88
2023/03/24 10:55:55;;;;;;;16.83;9.25;;;;;;;23.01;34.98;94622.66;6209652;23;20200;-83
2023/03/24 10:58:30;;;;;;;13.05;9.13;;;;;;;23.37;33.33;94635.97;6210441;23;20513;-80
2023/03/24 11:00:59;;;;;;;17.77;8.93;;;;;;;23.70;32.86;94622.25;6211443;23;20216;-86
2023/03/24 11:03:29;;;;;;;18.98;10.30;;;;;;;23.87;32.66;94618.13;6210393;23;20194;-85
2023/03/24 11:06:01;;;;;;;19.30;10.88;;;;;;;23.80;33.01;94629.19;6209272;23;20629;-82
2023/03/24 11:08:34;;;;;;;17.33;9.38;;;;;;;24.06;33.05;94645.31;6209175;23;20199;-83
2023/03/24 11:11:01;;;;;;;16.85;9.02;;;;;;;24.38;31.88;94645.09;6210720;23;20154;-83
2023/03/24 11:13:32;;;;;;;12.73;7.93;;;;;;;24.68;31.24;94638.19;6209109;23;20254;-84
2023/03/24 11:16:10;;;;;;;13.07;7.80;;;;;;;24.94;30.54;94633.00;6208704;23;20201;-85
2023/03/24 11:18:38;;;;;;;15.60;7.03;;;;;;;25.08;30.05;94625.72;6208054;23;20165;-84
2023/03/24 11:21:07;;;;;;;13.07;7.70;;;;;;;25.35;30.16;94628.09;6206573;23;20511;-83
2023/03/24 11:23:37;;;;;;;11.85;7.13;;;;;;;25.64;28.57;94625.66;6209278;23;20186;-82
2023/03/24 11:26:09;;;;;;;12.90;6.53;;;;;;;25.72;28.25;94614.22;6208540;23;20159;-81
2023/03/24 11:28:40;;;;;;;9.25;6.28;;;;;;;25.93;27.75;94595.72;6209209;23;20181;-82
2023/03/24 11:31:10;;;;;;;11.98;6.30;;;;;;;26.20;27.29;94608.75;6208828;23;20606;-81
2023/03/24 11:33:45;;;;;;;9.82;5.75;;;;;;;26.24;26.49;94606.19;6208188;23;20174;-81